^^
 
Daily Summary for December 05, 2019 Units:  English    Metric   Both
Daily Weekly Monthly Yearly Custom
  Current: High: Low: Average:
Temperature: 47.1 °F 48.2 °F 41.8 °F 45.1 °F
Dew Point: 45.7 °F 46.6 °F 40 °F 43.5 °F
Humidity: 95% 95% 93% 94%
Wind Speed: 0mph 1.7mph 0mph 0.1mph
Wind Gust: 0mph 5mph - -
WindCalm - - SSW
Pressure: 30.11 in 30.12 in 29.99 in -
Precipitation: 0.00 in      
Historical Graphs
 
 
Tabular Data for December 05, 2019
Time Temperature Dew Point Pressure Wind Wind Speed Wind Gust Humidity Rainfall Rate (Hourly) solar
00:04 48.2 °F 46.6 °F 30.00 in Calm     94% 0.00 in 0 W/m2
00:09 48.2 °F 46.6 °F 29.99 in Calm     94% 0.00 in 0 W/m2
00:14 48.1 °F 46.5 °F 29.99 in Calm     94% 0.00 in 0 W/m2
00:19 48.1 °F 46.5 °F 29.99 in Calm     94% 0.00 in 0 W/m2
00:24 48 °F 46.4 °F 29.99 in Calm     94% 0.00 in 0 W/m2
00:29 47.9 °F 46.3 °F 29.99 in Calm     94% 0.00 in 0 W/m2
00:34 47.9 °F 46.3 °F 29.99 in Calm     94% 0.00 in 0 W/m2
00:39 47.8 °F 46.3 °F 29.99 in Calm     94% 0.00 in 0 W/m2
00:44 47.8 °F 46.2 °F 29.99 in Calm     94% 0.00 in 0 W/m2
00:49 47.8 °F 46.2 °F 29.99 in Calm     94% 0.00 in 0 W/m2
00:54 47.7 °F 46.1 °F 29.99 in Calm     94% 0.00 in 0 W/m2
00:59 47.7 °F 46.1 °F 29.99 in Calm     94% 0.00 in 0 W/m2
01:04 47.7 °F 46.1 °F 29.99 in Calm     94% 0.00 in 0 W/m2
01:09 47.7 °F 46.1 °F 29.99 in Calm     94% 0.00 in 0 W/m2
01:14 47.6 °F 46 °F 29.99 in Calm     94% 0.00 in 0 W/m2
01:19 47.6 °F 46 °F 30.00 in Calm     94% 0.00 in 0 W/m2
01:24 47.6 °F 46 °F 30.00 in Calm     94% 0.00 in 0 W/m2
01:29 47.6 °F 46 °F 30.00 in Calm     94% 0.00 in 0 W/m2
01:34 47.6 °F 46 °F 30.00 in Calm     94% 0.00 in 0 W/m2
01:39 47.5 °F 45.9 °F 30.00 in Calm     94% 0.00 in 0 W/m2
01:44 47.5 °F 45.9 °F 30.00 in Calm     94% 0.00 in 0 W/m2
01:49 47.5 °F 45.9 °F 30.00 in Calm     94% 0.00 in 0 W/m2
01:54 47.5 °F 45.9 °F 30.00 in Calm     94% 0.00 in 0 W/m2
01:59 47.4 °F 45.8 °F 30.00 in Calm     94% 0.00 in 0 W/m2
02:04 47.4 °F 45.8 °F 30.01 in Calm     94% 0.00 in 0 W/m2
02:09 47.4 °F 45.8 °F 30.01 in Calm     94% 0.00 in 0 W/m2
02:14 47.4 °F 45.8 °F 30.01 in Calm     94% 0.00 in 0 W/m2
02:19 47.4 °F 45.8 °F 30.01 in Calm     94% 0.00 in 0 W/m2
02:24 47.3 °F 45.7 °F 30.01 in Calm     94% 0.00 in 0 W/m2
02:29 47.3 °F 45.7 °F 30.01 in Calm     94% 0.00 in 0 W/m2
02:34 47.3 °F 45.7 °F 30.01 in SSW 0.3 mph 0.2 mph 94% 0.00 in 0 W/m2
02:39 47.3 °F 45.7 °F 30.01 in SSW 1.3 mph 2 mph 94% 0.00 in 0 W/m2
02:44 47.2 °F 45.6 °F 30.01 in Calm   5 mph 94% 0.00 in 0 W/m2
02:49 47.2 °F 45.6 °F 30.02 in Calm     94% 0.00 in 0 W/m2
02:54 47.1 °F 45.5 °F 30.02 in Calm     94% 0.00 in 0 W/m2
02:59 47 °F 45.4 °F 30.01 in Calm     94% 0.00 in 0 W/m2
03:04 47 °F 45.4 °F 30.01 in Calm     94% 0.00 in 0 W/m2
03:09 46.8 °F 45.3 °F 30.01 in Calm     94% 0.00 in 0 W/m2
03:14 46.7 °F 45.1 °F 30.01 in SSW 0.9 mph 0.3 mph 94% 0.00 in 0 W/m2
03:19 46.5 °F 44.9 °F 30.01 in Calm   2 mph 94% 0.00 in 0 W/m2
03:24 46.4 °F 44.8 °F 30.01 in Calm     94% 0.00 in 0 W/m2
03:29 46.2 °F 44.6 °F 30.01 in Calm     94% 0.00 in 0 W/m2
03:34 46.1 °F 44.5 °F 30.01 in Calm     94% 0.00 in 0 W/m2
03:39 46 °F 44.4 °F 30.01 in Calm     94% 0.00 in 0 W/m2
03:44 45.9 °F 44.3 °F 30.02 in Calm     94% 0.00 in 0 W/m2
03:49 45.8 °F 44.2 °F 30.02 in Calm     94% 0.00 in 0 W/m2
03:54 45.6 °F 44 °F 30.02 in Calm     94% 0.00 in 0 W/m2
03:59 45.5 °F 43.9 °F 30.02 in Calm     94% 0.00 in 0 W/m2
04:04 45.4 °F 43.7 °F 30.02 in Calm     93.9% 0.00 in 0 W/m2
04:09 45.3 °F 43.6 °F 30.02 in Calm     93.9% 0.00 in 0 W/m2
04:14 45.2 °F 43.6 °F 30.02 in Calm     94% 0.00 in 0 W/m2
04:19 45 °F 43.4 °F 30.02 in Calm     94% 0.00 in 0 W/m2
04:24 45 °F 43.4 °F 30.02 in Calm     94% 0.00 in 0 W/m2
04:29 44.9 °F 43.1 °F 30.02 in Calm     93.4% 0.00 in 0 W/m2
04:34 44.8 °F 42.8 °F 30.02 in Calm     93% 0.00 in 0 W/m2
04:39 44.7 °F 42.8 °F 30.02 in Calm     93% 0.00 in 0 W/m2
04:44 44.6 °F 42.7 °F 30.02 in Calm     93% 0.00 in 0 W/m2
04:49 44.5 °F 42.8 °F 30.03 in Calm     93.8% 0.00 in 0 W/m2
04:54 44.4 °F 42.8 °F 30.03 in Calm     94% 0.00 in 0 W/m2
04:59 44.3 °F 42.7 °F 30.03 in Calm     94% 0.00 in 0 W/m2
05:04 44.3 °F 42.6 °F 30.03 in Calm     93.8% 0.00 in 0 W/m2
05:09 44.2 °F 42.3 °F 30.03 in Calm     93% 0.00 in 0 W/m2
05:14 44.1 °F 42.2 °F 30.03 in Calm     93% 0.00 in 0 W/m2
05:19 44.1 °F 42.2 °F 30.03 in Calm     93% 0.00 in 0 W/m2
05:24 44 °F 42.1 °F 30.03 in Calm     93.1% 0.00 in 0 W/m2
05:29 43.9 °F 42.3 °F 30.03 in Calm     94% 0.00 in 0 W/m2
05:34 43.8 °F 42.2 °F 30.03 in Calm     94% 0.00 in 0 W/m2
05:39 43.8 °F 42.2 °F 30.04 in Calm     94% 0.00 in 0 W/m2
05:44 43.7 °F 42.1 °F 30.04 in Calm     94% 0.00 in 0 W/m2
05:49 43.6 °F 42 °F 30.04 in Calm     93.9% 0.00 in 0 W/m2
05:54 43.6 °F 41.7 °F 30.04 in Calm     93.1% 0.00 in 0 W/m2
05:59 43.5 °F 41.6 °F 30.04 in Calm     93% 0.00 in 0 W/m2
06:04 43.5 °F 41.6 °F 30.04 in Calm     93% 0.00 in 0 W/m2
06:09 43.4 °F 41.5 °F 30.04 in Calm     93% 0.00 in 0 W/m2
06:14 43.3 °F 41.4 °F 30.05 in Calm     93.1% 0.00 in 0 W/m2
06:19 43.2 °F 41.6 °F 30.06 in Calm     93.9% 0.00 in 0 W/m2
06:24 43.2 °F 41.6 °F 30.06 in Calm     94% 0.00 in 0 W/m2
06:29 43.1 °F 41.5 °F 30.06 in Calm     93.8% 0.00 in 0 W/m2
06:34 43.1 °F 41.2 °F 30.06 in Calm     93% 0.00 in 0 W/m2
06:39 43 °F 41.1 °F 30.06 in Calm     93% 0.00 in 0 W/m2
06:44 42.9 °F 41 °F 30.06 in Calm     93% 0.00 in 0 W/m2
06:49 42.8 °F 40.9 °F 30.06 in Calm     93% 0.00 in 0 W/m2
06:54 42.8 °F 41 °F 30.06 in Calm     93.5% 0.00 in 0 W/m2
06:59 42.7 °F 40.9 °F 30.06 in Calm     93.4% 0.00 in 0 W/m2
07:04 42.5 °F 40.9 °F 30.07 in Calm     93.8% 0.00 in 0 W/m2
07:09 42.5 °F 40.6 °F 30.07 in Calm     93.3% 0.00 in 0 W/m2
07:14 42.4 °F 40.5 °F 30.07 in Calm     93% 0.00 in 5 W/m2
07:19 42.3 °F 40.4 °F 30.08 in Calm     93% 0.00 in 5 W/m2
07:24 42.2 °F 40.3 °F 30.08 in Calm     93% 0.00 in 7 W/m2
07:29 42.1 °F 40.2 °F 30.08 in Calm     93% 0.00 in 11 W/m2
07:34 42.1 °F 40.2 °F 30.08 in Calm     93% 0.00 in 12 W/m2
07:39 42 °F 40.1 °F 30.09 in Calm     93% 0.00 in 14 W/m2
07:44 42 °F 40.1 °F 30.09 in Calm     93% 0.00 in 19 W/m2
07:49 41.9 °F 40 °F 30.09 in Calm     93% 0.00 in 21 W/m2
07:54 41.9 °F 40.1 °F 30.09 in Calm     93.3% 0.00 in 25 W/m2
07:59 41.8 °F 40.2 °F 30.09 in Calm     93.9% 0.00 in 25 W/m2
08:04 41.8 °F 40 °F 30.09 in Calm     93.3% 0.00 in 23 W/m2
08:09 41.8 °F 40 °F 30.10 in Calm     93.3% 0.00 in 26 W/m2
08:14 41.9 °F 40.2 °F 30.10 in Calm     93.9% 0.00 in 28 W/m2
08:19 41.9 °F 40.3 °F 30.10 in Calm     94% 0.00 in 30 W/m2
08:24 42 °F 40.4 °F 30.11 in Calm     94% 0.00 in 30 W/m2
08:29 42.2 °F 40.6 °F 30.11 in Calm     94% 0.00 in 33 W/m2
08:34 42.3 °F 40.7 °F 30.11 in Calm     94% 0.00 in 40 W/m2
08:39 42.5 °F 40.9 °F 30.11 in Calm     94% 0.00 in 44 W/m2
08:44 42.8 °F 41.2 °F 30.11 in Calm     94% 0.00 in 49 W/m2
08:49 43.1 °F 41.5 °F 30.11 in Calm     94% 0.00 in 49 W/m2
08:54 43.5 °F 42 °F 30.11 in Calm     94.3% 0.00 in 49 W/m2
08:59 43.9 °F 42.6 °F 30.11 in SSW 1.7 mph 2 mph 95% 0.00 in 47 W/m2
09:04 44.3 °F 43 °F 30.11 in SSW 0.5 mph 5 mph 95% 0.00 in 47 W/m2
09:09 44.8 °F 43.5 °F 30.11 in SSW 0.6 mph 0.2 mph 95% 0.00 in 47 W/m2
09:14 45.2 °F 43.9 °F 30.11 in SSW 0.6 mph 2.2 mph 95% 0.00 in 46 W/m2
09:19 45.6 °F 44.3 °F 30.11 in SSW 0.7 mph 5 mph 95% 0.00 in 142 W/m2
09:24 46 °F 44.6 °F 30.11 in Calm     95% 0.00 in 167 W/m2
09:29 46.4 °F 45 °F 30.12 in SSW 0.6 mph 0.3 mph 95% 0.00 in 230 W/m2
09:34 46.7 °F 45.3 °F 30.12 in SSW 0.3 mph 2 mph 95% 0.00 in 290 W/m2
09:39 46.9 °F 45.5 °F 30.11 in Calm   2 mph 95% 0.00 in 308 W/m2
09:44 47.1 °F 45.7 °F 30.11 in Calm     95% 0.00 in 325 W/m2
El Dorado Weather
Compliments of Weather Underground - 2 mb